< Typhoon 200821 2008 Season Typhoon 200901 >
Typhoon 200822 (DOLPHIN)
General InformationTrack Information on Google MapsDetailed Wind InformationAccess Analytics MapList of All Images || Disaster Info.WeblogTrackbackTyphoon FrontTyphoon ImaginationResourceGoogle EarthGE AnimationAtom FeedGeoJSON
Detalied Best Track (Time Zone = UTC)
Year Month Day Hour Lat. Long. Pressure (hPa) Wind (kt) Class Image Chart
2008 12 11 06 12.5 145.2 1000 0 2 Image Chart
2008 12 11 12 12.8 143.6 1002 0 2 Image Chart
2008 12 11 18 13.0 142.3 1000 0 2 Image Chart
2008 12 12 00 13.3 141.3 1002 0 2 Image Chart
2008 12 12 06 13.6 140.3 1000 0 2 Image Chart
2008 12 12 12 14.0 139.2 1000 0 2 Image Chart
2008 12 12 18 14.0 138.1 996 35 3 Image Chart
2008 12 13 00 14.0 136.9 996 35 3 Image Chart
2008 12 13 06 13.9 135.8 992 40 3 Image Chart
2008 12 13 12 13.8 134.7 992 40 3 Image Chart
2008 12 13 18 13.7 134.0 990 45 3 Image Chart
2008 12 14 00 13.6 133.1 990 45 3 Image Chart
2008 12 14 06 13.6 132.4 990 45 3 Image Chart
2008 12 14 12 13.7 131.6 985 50 4 Image Chart
2008 12 14 18 13.7 130.8 985 50 4 Image Chart
2008 12 15 00 13.9 130.3 980 55 4 Image Chart
2008 12 15 06 14.3 130.4 980 55 4 Image Chart
2008 12 15 12 14.8 130.5 975 60 4 Image Chart
2008 12 15 18 15.3 130.5 970 65 5 Image Chart
2008 12 16 00 15.8 130.5 970 65 5 Image Chart
2008 12 16 06 16.4 130.7 970 65 5 Image Chart
2008 12 16 12 17.0 130.9 975 60 4 Image Chart
2008 12 16 18 17.7 131.4 980 55 4 Image Chart
2008 12 17 00 18.5 132.0 985 50 4 Image Chart
2008 12 17 06 19.3 132.6 990 45 3 Image Chart
2008 12 17 12 20.1 133.8 992 40 3 Image Chart
2008 12 17 18 21.1 135.3 994 40 3 Image Chart
2008 12 18 00 22.1 137.3 996 35 3 Image Chart
2008 12 18 06 22.8 139.5 1002 35 3 Image Chart
2008 12 18 12 23.4 140.5 1008 0 6 Image Chart
2008 12 18 18 24.1 141.5 1010 0 6 Image Chart
Japan Meteorological Agency Best Track Data | Correction Date : 2009-01-16
< Typhoon 200821 2008 Season Typhoon 200901 >

Help